Terminal Aerodrome Forecast
Issued by NWS Austin/San Antonio, TX

Home | Current Version | Previous Version | Text Only | Print | Product List | Glossary On
Versions: 1 2 3 4 5 6 7 8 9 10 11 12 13 14 15
000
FTUS44 KEWX 041120
TAFSAT
TAF
KSAT 041120Z 0412/0518 16005KT P6SM BKN012
      TEMPO 0412/0414 BKN009
     FM041600 14011KT P6SM SCT040
     FM051000 16007KT P6SM BKN015
     FM051600 16010KT P6SM SCT040=

USA.gov is the U.S. government's official web portal to all federal, state and local government web resources and services.